sensor_id;sensor_type;location;lat;lon;timestamp;temperature;humidity
46730;DHT22;32476;50.002;11.854;2023-04-28T00:01:36;5.40;99.90
46730;DHT22;32476;50.002;11.854;2023-04-28T00:04:02;5.40;99.90
46730;DHT22;32476;50.002;11.854;2023-04-28T00:06:29;5.40;99.90
46730;DHT22;32476;50.002;11.854;2023-04-28T00:08:55;5.40;99.90
46730;DHT22;32476;50.002;11.854;2023-04-28T00:11:21;5.40;99.90
46730;DHT22;32476;50.002;11.854;2023-04-28T00:13:48;5.50;99.90
46730;DHT22;32476;50.002;11.854;2023-04-28T00:16:14;5.50;99.90
46730;DHT22;32476;50.002;11.854;2023-04-28T00:18:40;5.60;99.90
46730;DHT22;32476;50.002;11.854;2023-04-28T00:21:07;5.60;99.90
46730;DHT22;32476;50.002;11.854;2023-04-28T00:23:33;5.60;99.90
46730;DHT22;32476;50.002;11.854;2023-04-28T00:25:59;5.70;99.90
46730;DHT22;32476;50.002;11.854;2023-04-28T00:28:27;5.70;99.90
46730;DHT22;32476;50.002;11.854;2023-04-28T00:30:53;5.70;99.90
46730;DHT22;32476;50.002;11.854;2023-04-28T00:33:18;5.70;99.90
46730;DHT22;32476;50.002;11.854;2023-04-28T00:35:46;5.80;99.90
46730;DHT22;32476;50.002;11.854;2023-04-28T00:38:11;5.80;99.90
46730;DHT22;32476;50.002;11.854;2023-04-28T00:40:38;5.80;99.90
46730;DHT22;32476;50.002;11.854;2023-04-28T00:43:05;5.80;99.90
46730;DHT22;32476;50.002;11.854;2023-04-28T00:45:31;5.80;99.90
46730;DHT22;32476;50.002;11.854;2023-04-28T00:47:58;5.90;99.90
46730;DHT22;32476;50.002;11.854;2023-04-28T00:50:25;5.90;99.90
46730;DHT22;32476;50.002;11.854;2023-04-28T00:52:52;5.90;99.90
46730;DHT22;32476;50.002;11.854;2023-04-28T00:55:18;6.00;99.90
46730;DHT22;32476;50.002;11.854;2023-04-28T00:57:45;5.90;99.90
46730;DHT22;32476;50.002;11.854;2023-04-28T01:00:12;5.90;99.90
46730;DHT22;32476;50.002;11.854;2023-04-28T01:02:39;6.00;99.90
46730;DHT22;32476;50.002;11.854;2023-04-28T01:05:08;5.90;99.90
46730;DHT22;32476;50.002;11.854;2023-04-28T01:07:34;5.90;99.90
46730;DHT22;32476;50.002;11.854;2023-04-28T01:09:59;6.00;99.90
46730;DHT22;32476;50.002;11.854;2023-04-28T01:12:27;6.00;99.90
46730;DHT22;32476;50.002;11.854;2023-04-28T01:14:52;6.00;99.90
46730;DHT22;32476;50.002;11.854;2023-04-28T01:17:18;6.00;99.90
46730;DHT22;32476;50.002;11.854;2023-04-28T01:19:46;5.90;99.90
46730;DHT22;32476;50.002;11.854;2023-04-28T01:22:11;6.00;99.90
46730;DHT22;32476;50.002;11.854;2023-04-28T01:24:41;6.00;99.90
46730;DHT22;32476;50.002;11.854;2023-04-28T01:27:08;6.00;99.90
46730;DHT22;32476;50.002;11.854;2023-04-28T01:29:34;5.90;99.90
46730;DHT22;32476;50.002;11.854;2023-04-28T01:32:00;5.80;99.90
46730;DHT22;32476;50.002;11.854;2023-04-28T01:34:27;5.70;99.90
46730;DHT22;32476;50.002;11.854;2023-04-28T01:36:53;5.70;99.90
46730;DHT22;32476;50.002;11.854;2023-04-28T01:39:19;5.60;99.90
46730;DHT22;32476;50.002;11.854;2023-04-28T01:41:47;5.60;99.90
46730;DHT22;32476;50.002;11.854;2023-04-28T01:44:12;5.60;99.90
46730;DHT22;32476;50.002;11.854;2023-04-28T01:46:38;5.50;99.90
46730;DHT22;32476;50.002;11.854;2023-04-28T01:49:05;5.50;99.90
46730;DHT22;32476;50.002;11.854;2023-04-28T01:51:31;5.50;99.90
46730;DHT22;32476;50.002;11.854;2023-04-28T01:53:57;5.50;99.90
46730;DHT22;32476;50.002;11.854;2023-04-28T01:56:24;5.40;99.90
46730;DHT22;32476;50.002;11.854;2023-04-28T01:58:50;5.40;99.90
46730;DHT22;32476;50.002;11.854;2023-04-28T02:01:16;5.50;99.90
46730;DHT22;32476;50.002;11.854;2023-04-28T02:03:43;5.50;99.90
46730;DHT22;32476;50.002;11.854;2023-04-28T02:06:09;5.60;99.90
46730;DHT22;32476;50.002;11.854;2023-04-28T02:08:34;5.60;99.90
46730;DHT22;32476;50.002;11.854;2023-04-28T02:11:02;5.60;99.90
46730;DHT22;32476;50.002;11.854;2023-04-28T02:13:28;5.60;99.90
46730;DHT22;32476;50.002;11.854;2023-04-28T02:15:54;5.60;99.90
46730;DHT22;32476;50.002;11.854;2023-04-28T02:18:22;5.50;99.90
46730;DHT22;32476;50.002;11.854;2023-04-28T02:20:48;5.50;99.90
46730;DHT22;32476;50.002;11.854;2023-04-28T02:23:13;5.50;99.90
46730;DHT22;32476;50.002;11.854;2023-04-28T02:25:41;5.50;99.90
46730;DHT22;32476;50.002;11.854;2023-04-28T02:28:06;5.50;99.90
46730;DHT22;32476;50.002;11.854;2023-04-28T02:30:32;5.50;99.90
46730;DHT22;32476;50.002;11.854;2023-04-28T02:32:59;5.60;99.90
46730;DHT22;32476;50.002;11.854;2023-04-28T02:35:25;5.60;99.90
46730;DHT22;32476;50.002;11.854;2023-04-28T02:37:51;5.50;99.90
46730;DHT22;32476;50.002;11.854;2023-04-28T02:40:18;5.50;99.90
46730;DHT22;32476;50.002;11.854;2023-04-28T02:42:44;5.50;99.90
46730;DHT22;32476;50.002;11.854;2023-04-28T02:45:10;5.50;99.90
46730;DHT22;32476;50.002;11.854;2023-04-28T02:47:38;5.50;99.90
46730;DHT22;32476;50.002;11.854;2023-04-28T02:50:04;5.50;99.90
46730;DHT22;32476;50.002;11.854;2023-04-28T02:52:29;5.60;99.90
46730;DHT22;32476;50.002;11.854;2023-04-28T02:54:57;5.60;99.90
46730;DHT22;32476;50.002;11.854;2023-04-28T02:57:23;5.70;99.90
46730;DHT22;32476;50.002;11.854;2023-04-28T02:59:49;5.70;99.90
46730;DHT22;32476;50.002;11.854;2023-04-28T03:02:16;5.70;99.90
46730;DHT22;32476;50.002;11.854;2023-04-28T03:04:42;5.60;99.90
46730;DHT22;32476;50.002;11.854;2023-04-28T03:07:08;5.50;99.90
46730;DHT22;32476;50.002;11.854;2023-04-28T03:09:35;5.60;99.90
46730;DHT22;32476;50.002;11.854;2023-04-28T03:12:01;5.60;99.90
46730;DHT22;32476;50.002;11.854;2023-04-28T03:14:27;5.60;99.90
46730;DHT22;32476;50.002;11.854;2023-04-28T03:16:55;5.50;99.90
46730;DHT22;32476;50.002;11.854;2023-04-28T03:19:22;5.50;99.90
46730;DHT22;32476;50.002;11.854;2023-04-28T03:21:48;5.50;99.90
46730;DHT22;32476;50.002;11.854;2023-04-28T03:24:15;5.50;99.90
46730;DHT22;32476;50.002;11.854;2023-04-28T03:26:41;5.50;99.90
46730;DHT22;32476;50.002;11.854;2023-04-28T03:29:06;5.50;99.90
46730;DHT22;32476;50.002;11.854;2023-04-28T03:31:34;5.50;99.90
46730;DHT22;32476;50.002;11.854;2023-04-28T03:33:59;5.60;99.90
46730;DHT22;32476;50.002;11.854;2023-04-28T03:36:25;5.60;99.90
46730;DHT22;32476;50.002;11.854;2023-04-28T03:38:53;5.60;99.90
46730;DHT22;32476;50.002;11.854;2023-04-28T03:41:19;5.50;99.90
46730;DHT22;32476;50.002;11.854;2023-04-28T03:43:45;5.60;99.90
46730;DHT22;32476;50.002;11.854;2023-04-28T03:46:12;5.60;99.90
46730;DHT22;32476;50.002;11.854;2023-04-28T03:48:38;5.70;99.90
46730;DHT22;32476;50.002;11.854;2023-04-28T03:51:03;5.70;99.90
46730;DHT22;32476;50.002;11.854;2023-04-28T03:53:31;5.70;99.90
46730;DHT22;32476;50.002;11.854;2023-04-28T03:55:56;5.60;99.90
46730;DHT22;32476;50.002;11.854;2023-04-28T03:58:22;5.70;99.90
46730;DHT22;32476;50.002;11.854;2023-04-28T04:00:50;5.60;99.90
46730;DHT22;32476;50.002;11.854;2023-04-28T04:03:15;5.60;99.90
46730;DHT22;32476;50.002;11.854;2023-04-28T04:05:41;5.60;99.90
46730;DHT22;32476;50.002;11.854;2023-04-28T04:08:09;5.60;99.90
46730;DHT22;32476;50.002;11.854;2023-04-28T04:10:34;5.70;99.90
46730;DHT22;32476;50.002;11.854;2023-04-28T04:13:00;5.70;99.90
46730;DHT22;32476;50.002;11.854;2023-04-28T04:15:28;5.70;99.90
46730;DHT22;32476;50.002;11.854;2023-04-28T04:17:53;5.70;99.90
46730;DHT22;32476;50.002;11.854;2023-04-28T04:20:19;5.70;99.90
46730;DHT22;32476;50.002;11.854;2023-04-28T04:22:47;5.60;99.90
46730;DHT22;32476;50.002;11.854;2023-04-28T04:25:12;5.70;99.90
46730;DHT22;32476;50.002;11.854;2023-04-28T04:27:38;5.70;99.90
46730;DHT22;32476;50.002;11.854;2023-04-28T04:30:06;5.70;99.90
46730;DHT22;32476;50.002;11.854;2023-04-28T04:32:32;5.70;99.90
46730;DHT22;32476;50.002;11.854;2023-04-28T04:34:58;5.80;99.90
46730;DHT22;32476;50.002;11.854;2023-04-28T04:37:25;5.80;99.90
46730;DHT22;32476;50.002;11.854;2023-04-28T04:39:51;5.80;99.90
46730;DHT22;32476;50.002;11.854;2023-04-28T04:42:17;5.80;99.90
46730;DHT22;32476;50.002;11.854;2023-04-28T04:44:45;5.90;99.90
46730;DHT22;32476;50.002;11.854;2023-04-28T04:47:10;5.90;99.90
46730;DHT22;32476;50.002;11.854;2023-04-28T04:49:36;5.90;99.90
46730;DHT22;32476;50.002;11.854;2023-04-28T04:52:04;5.90;99.90
46730;DHT22;32476;50.002;11.854;2023-04-28T04:54:31;6.00;99.90
46730;DHT22;32476;50.002;11.854;2023-04-28T04:56:57;6.00;99.90
46730;DHT22;32476;50.002;11.854;2023-04-28T04:59:24;6.10;99.90
46730;DHT22;32476;50.002;11.854;2023-04-28T05:01:50;6.20;99.90
46730;DHT22;32476;50.002;11.854;2023-04-28T05:04:16;6.20;99.90
46730;DHT22;32476;50.002;11.854;2023-04-28T05:06:43;6.20;99.90
46730;DHT22;32476;50.002;11.854;2023-04-28T05:09:09;6.20;99.90
46730;DHT22;32476;50.002;11.854;2023-04-28T05:11:35;6.30;99.90
46730;DHT22;32476;50.002;11.854;2023-04-28T05:14:02;6.40;99.90
46730;DHT22;32476;50.002;11.854;2023-04-28T05:16:28;6.50;99.90
46730;DHT22;32476;50.002;11.854;2023-04-28T05:18:54;6.60;99.90
46730;DHT22;32476;50.002;11.854;2023-04-28T05:21:21;6.70;99.90
46730;DHT22;32476;50.002;11.854;2023-04-28T05:23:47;6.80;99.90
46730;DHT22;32476;50.002;11.854;2023-04-28T05:26:13;6.90;99.90
46730;DHT22;32476;50.002;11.854;2023-04-28T05:28:40;7.00;99.90
46730;DHT22;32476;50.002;11.854;2023-04-28T05:31:06;7.10;99.90
46730;DHT22;32476;50.002;11.854;2023-04-28T05:33:32;7.10;99.90
46730;DHT22;32476;50.002;11.854;2023-04-28T05:36:00;7.10;99.90
46730;DHT22;32476;50.002;11.854;2023-04-28T05:38:26;7.10;99.90
46730;DHT22;32476;50.002;11.854;2023-04-28T05:40:51;7.10;99.90
46730;DHT22;32476;50.002;11.854;2023-04-28T05:43:19;7.20;99.90
46730;DHT22;32476;50.002;11.854;2023-04-28T05:45:44;7.20;99.90
46730;DHT22;32476;50.002;11.854;2023-04-28T05:48:10;7.20;99.90
46730;DHT22;32476;50.002;11.854;2023-04-28T05:50:38;7.20;99.90
46730;DHT22;32476;50.002;11.854;2023-04-28T05:53:04;7.30;99.90
46730;DHT22;32476;50.002;11.854;2023-04-28T05:55:30;7.30;99.90
46730;DHT22;32476;50.002;11.854;2023-04-28T05:57:57;7.30;99.90
46730;DHT22;32476;50.002;11.854;2023-04-28T06:00:24;7.30;99.90
46730;DHT22;32476;50.002;11.854;2023-04-28T06:02:50;7.30;99.90
46730;DHT22;32476;50.002;11.854;2023-04-28T06:05:18;7.30;99.90
46730;DHT22;32476;50.002;11.854;2023-04-28T06:07:44;7.40;99.90
46730;DHT22;32476;50.002;11.854;2023-04-28T06:10:10;7.40;99.90
46730;DHT22;32476;50.002;11.854;2023-04-28T06:12:38;7.60;99.90
46730;DHT22;32476;50.002;11.854;2023-04-28T06:15:05;7.60;99.90
46730;DHT22;32476;50.002;11.854;2023-04-28T06:17:31;7.70;99.90
46730;DHT22;32476;50.002;11.854;2023-04-28T06:19:59;7.70;99.90
46730;DHT22;32476;50.002;11.854;2023-04-28T06:22:25;7.80;99.90
46730;DHT22;32476;50.002;11.854;2023-04-28T06:24:51;7.80;99.90
46730;DHT22;32476;50.002;11.854;2023-04-28T06:27:18;7.80;99.90
46730;DHT22;32476;50.002;11.854;2023-04-28T06:29:44;7.90;99.90
46730;DHT22;32476;50.002;11.854;2023-04-28T06:32:10;7.90;99.90
46730;DHT22;32476;50.002;11.854;2023-04-28T06:34:37;8.00;99.90
46730;DHT22;32476;50.002;11.854;2023-04-28T06:37:03;8.00;99.90
46730;DHT22;32476;50.002;11.854;2023-04-28T06:39:29;7.90;99.90
46730;DHT22;32476;50.002;11.854;2023-04-28T06:41:57;7.80;99.90
46730;DHT22;32476;50.002;11.854;2023-04-28T06:44:23;7.80;99.90
46730;DHT22;32476;50.002;11.854;2023-04-28T06:46:48;7.80;99.90
46730;DHT22;32476;50.002;11.854;2023-04-28T06:49:16;7.80;99.90
46730;DHT22;32476;50.002;11.854;2023-04-28T06:51:42;7.80;99.90
46730;DHT22;32476;50.002;11.854;2023-04-28T06:54:07;7.80;99.90
46730;DHT22;32476;50.002;11.854;2023-04-28T06:56:35;7.80;99.90
46730;DHT22;32476;50.002;11.854;2023-04-28T06:59:00;7.80;99.90
46730;DHT22;32476;50.002;11.854;2023-04-28T07:01:27;7.80;99.90
46730;DHT22;32476;50.002;11.854;2023-04-28T07:03:55;7.80;99.90
46730;DHT22;32476;50.002;11.854;2023-04-28T07:06:20;7.90;99.90
46730;DHT22;32476;50.002;11.854;2023-04-28T07:08:46;8.00;99.90
46730;DHT22;32476;50.002;11.854;2023-04-28T07:11:14;8.20;99.90
46730;DHT22;32476;50.002;11.854;2023-04-28T07:13:41;8.20;99.90
46730;DHT22;32476;50.002;11.854;2023-04-28T07:16:06;8.20;99.90
46730;DHT22;32476;50.002;11.854;2023-04-28T07:18:34;8.20;99.90
46730;DHT22;32476;50.002;11.854;2023-04-28T07:20:59;8.30;99.90
46730;DHT22;32476;50.002;11.854;2023-04-28T07:23:25;8.40;99.90
46730;DHT22;32476;50.002;11.854;2023-04-28T07:25:53;8.40;99.90
46730;DHT22;32476;50.002;11.854;2023-04-28T07:28:19;8.40;99.90
46730;DHT22;32476;50.002;11.854;2023-04-28T07:30:45;8.40;99.90
46730;DHT22;32476;50.002;11.854;2023-04-28T07:33:12;8.30;99.90
46730;DHT22;32476;50.002;11.854;2023-04-28T07:35:38;8.30;99.90
46730;DHT22;32476;50.002;11.854;2023-04-28T07:38:04;8.30;99.90
46730;DHT22;32476;50.002;11.854;2023-04-28T07:40:31;8.30;99.90
46730;DHT22;32476;50.002;11.854;2023-04-28T07:42:57;8.40;99.90
46730;DHT22;32476;50.002;11.854;2023-04-28T07:45:23;8.40;99.90
46730;DHT22;32476;50.002;11.854;2023-04-28T07:47:50;8.40;99.90
46730;DHT22;32476;50.002;11.854;2023-04-28T07:50:16;8.50;99.90
46730;DHT22;32476;50.002;11.854;2023-04-28T07:52:42;8.50;99.90
46730;DHT22;32476;50.002;11.854;2023-04-28T07:55:09;8.60;99.90
46730;DHT22;32476;50.002;11.854;2023-04-28T07:57:35;8.50;99.90
46730;DHT22;32476;50.002;11.854;2023-04-28T08:00:01;8.50;99.90
46730;DHT22;32476;50.002;11.854;2023-04-28T08:02:29;8.60;99.90
46730;DHT22;32476;50.002;11.854;2023-04-28T08:04:55;8.60;99.90
46730;DHT22;32476;50.002;11.854;2023-04-28T08:07:21;8.60;99.90
46730;DHT22;32476;50.002;11.854;2023-04-28T08:09:49;8.60;99.90
46730;DHT22;32476;50.002;11.854;2023-04-28T08:12:15;8.60;99.90
46730;DHT22;32476;50.002;11.854;2023-04-28T08:14:40;8.60;99.90
46730;DHT22;32476;50.002;11.854;2023-04-28T08:17:08;8.60;99.90
46730;DHT22;32476;50.002;11.854;2023-04-28T08:19:34;8.60;99.90
46730;DHT22;32476;50.002;11.854;2023-04-28T08:22:00;8.50;99.90
46730;DHT22;32476;50.002;11.854;2023-04-28T08:24:32;8.40;99.90
46730;DHT22;32476;50.002;11.854;2023-04-28T08:27:01;8.40;99.90
46730;DHT22;32476;50.002;11.854;2023-04-28T08:29:32;8.30;99.90
46730;DHT22;32476;50.002;11.854;2023-04-28T08:31:57;8.20;99.90
46730;DHT22;32476;50.002;11.854;2023-04-28T08:34:24;8.30;99.90
46730;DHT22;32476;50.002;11.854;2023-04-28T08:36:51;8.20;99.90
46730;DHT22;32476;50.002;11.854;2023-04-28T08:39:18;8.10;99.90
46730;DHT22;32476;50.002;11.854;2023-04-28T08:41:45;8.00;99.90
46730;DHT22;32476;50.002;11.854;2023-04-28T08:44:12;8.10;99.90
46730;DHT22;32476;50.002;11.854;2023-04-28T08:46:42;8.00;99.90
46730;DHT22;32476;50.002;11.854;2023-04-28T08:49:16;7.90;99.90
46730;DHT22;32476;50.002;11.854;2023-04-28T08:52:09;7.70;99.90
46730;DHT22;32476;50.002;11.854;2023-04-28T08:54:37;7.60;99.90
46730;DHT22;32476;50.002;11.854;2023-04-28T08:57:08;7.60;99.90
46730;DHT22;32476;50.002;11.854;2023-04-28T08:59:40;7.60;99.90
46730;DHT22;32476;50.002;11.854;2023-04-28T09:02:08;7.50;99.90
46730;DHT22;32476;50.002;11.854;2023-04-28T09:04:34;7.50;99.90
46730;DHT22;32476;50.002;11.854;2023-04-28T09:06:59;7.50;99.90
46730;DHT22;32476;50.002;11.854;2023-04-28T09:09:28;7.30;99.90
46730;DHT22;32476;50.002;11.854;2023-04-28T09:11:57;7.40;99.90
46730;DHT22;32476;50.002;11.854;2023-04-28T09:14:24;7.30;99.90
46730;DHT22;32476;50.002;11.854;2023-04-28T09:16:52;7.30;99.90
46730;DHT22;32476;50.002;11.854;2023-04-28T09:19:19;7.30;99.90
46730;DHT22;32476;50.002;11.854;2023-04-28T09:21:55;7.40;99.90
46730;DHT22;32476;50.002;11.854;2023-04-28T09:24:30;7.40;99.90
46730;DHT22;32476;50.002;11.854;2023-04-28T09:26:58;7.40;99.90
46730;DHT22;32476;50.002;11.854;2023-04-28T09:29:25;7.40;99.90
46730;DHT22;32476;50.002;11.854;2023-04-28T09:31:51;7.40;99.90
46730;DHT22;32476;50.002;11.854;2023-04-28T09:34:18;7.50;99.90
46730;DHT22;32476;50.002;11.854;2023-04-28T09:36:45;7.50;99.90
46730;DHT22;32476;50.002;11.854;2023-04-28T09:39:11;7.50;99.90
46730;DHT22;32476;50.002;11.854;2023-04-28T09:41:45;7.40;99.90
46730;DHT22;32476;50.002;11.854;2023-04-28T09:44:15;7.50;99.90
46730;DHT22;32476;50.002;11.854;2023-04-28T09:46:43;7.60;99.90
46730;DHT22;32476;50.002;11.854;2023-04-28T09:49:09;7.60;99.90
46730;DHT22;32476;50.002;11.854;2023-04-28T09:51:40;7.60;99.90
46730;DHT22;32476;50.002;11.854;2023-04-28T09:54:06;7.60;99.90
46730;DHT22;32476;50.002;11.854;2023-04-28T09:56:34;7.70;99.90
46730;DHT22;32476;50.002;11.854;2023-04-28T09:59:04;7.80;99.90
46730;DHT22;32476;50.002;11.854;2023-04-28T10:01:36;7.80;99.90
46730;DHT22;32476;50.002;11.854;2023-04-28T10:04:07;7.90;99.90
46730;DHT22;32476;50.002;11.854;2023-04-28T10:06:34;7.90;99.90
46730;DHT22;32476;50.002;11.854;2023-04-28T10:09:04;7.90;99.90
46730;DHT22;32476;50.002;11.854;2023-04-28T10:11:32;8.00;99.90
46730;DHT22;32476;50.002;11.854;2023-04-28T10:13:59;7.90;99.90
46730;DHT22;32476;50.002;11.854;2023-04-28T10:16:29;8.00;99.90
46730;DHT22;32476;50.002;11.854;2023-04-28T10:18:57;8.00;99.90
46730;DHT22;32476;50.002;11.854;2023-04-28T10:21:24;8.00;99.90
46730;DHT22;32476;50.002;11.854;2023-04-28T10:27:02;8.30;99.90
46730;DHT22;32476;50.002;11.854;2023-04-28T10:29:32;8.40;99.90
46730;DHT22;32476;50.002;11.854;2023-04-28T10:34:43;8.40;99.90
46730;DHT22;32476;50.002;11.854;2023-04-28T10:37:11;8.20;99.90
46730;DHT22;32476;50.002;11.854;2023-04-28T10:39:40;8.20;99.90
46730;DHT22;32476;50.002;11.854;2023-04-28T10:45:13;8.20;99.90
46730;DHT22;32476;50.002;11.854;2023-04-28T10:47:59;8.20;99.90
46730;DHT22;32476;50.002;11.854;2023-04-28T10:50:30;8.40;99.90
46730;DHT22;32476;50.002;11.854;2023-04-28T10:52:56;8.40;99.90
46730;DHT22;32476;50.002;11.854;2023-04-28T10:55:30;8.60;99.90
46730;DHT22;32476;50.002;11.854;2023-04-28T11:00:40;8.70;99.90
46730;DHT22;32476;50.002;11.854;2023-04-28T11:03:08;8.50;99.90
46730;DHT22;32476;50.002;11.854;2023-04-28T11:05:35;8.60;99.90
46730;DHT22;32476;50.002;11.854;2023-04-28T11:08:31;8.60;99.90
46730;DHT22;32476;50.002;11.854;2023-04-28T11:11:12;8.70;99.90
46730;DHT22;32476;50.002;11.854;2023-04-28T11:13:40;8.70;99.90
46730;DHT22;32476;50.002;11.854;2023-04-28T11:16:08;8.80;99.90
46730;DHT22;32476;50.002;11.854;2023-04-28T11:18:48;8.70;99.90
46730;DHT22;32476;50.002;11.854;2023-04-28T11:21:21;8.80;99.90
46730;DHT22;32476;50.002;11.854;2023-04-28T11:23:48;8.80;99.90
46730;DHT22;32476;50.002;11.854;2023-04-28T11:26:18;8.80;99.90
46730;DHT22;32476;50.002;11.854;2023-04-28T11:28:52;8.80;99.90
46730;DHT22;32476;50.002;11.854;2023-04-28T11:31:21;8.80;99.90
46730;DHT22;32476;50.002;11.854;2023-04-28T11:34:20;8.90;99.90
46730;DHT22;32476;50.002;11.854;2023-04-28T11:36:46;8.90;99.90
46730;DHT22;32476;50.002;11.854;2023-04-28T11:39:12;9.00;99.90
46730;DHT22;32476;50.002;11.854;2023-04-28T11:41:40;9.00;99.90
46730;DHT22;32476;50.002;11.854;2023-04-28T11:44:11;8.90;99.90
46730;DHT22;32476;50.002;11.854;2023-04-28T11:46:47;8.90;99.90
46730;DHT22;32476;50.002;11.854;2023-04-28T11:49:22;9.00;99.90
46730;DHT22;32476;50.002;11.854;2023-04-28T11:52:04;8.90;99.90
46730;DHT22;32476;50.002;11.854;2023-04-28T11:54:32;9.00;99.90
46730;DHT22;32476;50.002;11.854;2023-04-28T11:56:59;9.00;99.90
46730;DHT22;32476;50.002;11.854;2023-04-28T11:59:35;9.00;99.90
46730;DHT22;32476;50.002;11.854;2023-04-28T12:02:04;9.00;99.90
46730;DHT22;32476;50.002;11.854;2023-04-28T12:04:39;9.00;99.90
46730;DHT22;32476;50.002;11.854;2023-04-28T12:07:16;9.00;99.90
46730;DHT22;32476;50.002;11.854;2023-04-28T12:09:48;9.00;99.90
46730;DHT22;32476;50.002;11.854;2023-04-28T12:12:34;9.00;99.90
46730;DHT22;32476;50.002;11.854;2023-04-28T12:15:06;9.00;99.90
46730;DHT22;32476;50.002;11.854;2023-04-28T12:17:37;9.00;99.90
46730;DHT22;32476;50.002;11.854;2023-04-28T12:20:07;9.00;99.90
46730;DHT22;32476;50.002;11.854;2023-04-28T12:22:44;9.00;99.90
46730;DHT22;32476;50.002;11.854;2023-04-28T12:25:15;9.00;99.90
46730;DHT22;32476;50.002;11.854;2023-04-28T12:28:04;9.00;99.90
46730;DHT22;32476;50.002;11.854;2023-04-28T12:30:35;9.10;99.90
46730;DHT22;32476;50.002;11.854;2023-04-28T12:33:03;9.00;99.90
46730;DHT22;32476;50.002;11.854;2023-04-28T12:35:29;9.10;99.90
46730;DHT22;32476;50.002;11.854;2023-04-28T12:37:57;9.20;99.90
46730;DHT22;32476;50.002;11.854;2023-04-28T12:40:23;9.20;99.90
46730;DHT22;32476;50.002;11.854;2023-04-28T12:42:49;9.30;99.90
46730;DHT22;32476;50.002;11.854;2023-04-28T12:45:17;9.30;99.90
46730;DHT22;32476;50.002;11.854;2023-04-28T12:47:43;9.40;99.90
46730;DHT22;32476;50.002;11.854;2023-04-28T12:50:09;9.40;99.90
46730;DHT22;32476;50.002;11.854;2023-04-28T12:52:36;9.30;99.90
46730;DHT22;32476;50.002;11.854;2023-04-28T12:55:03;9.30;99.90
46730;DHT22;32476;50.002;11.854;2023-04-28T12:57:29;9.30;99.90
46730;DHT22;32476;50.002;11.854;2023-04-28T12:59:56;9.30;99.90
46730;DHT22;32476;50.002;11.854;2023-04-28T13:02:22;9.20;99.90
46730;DHT22;32476;50.002;11.854;2023-04-28T13:04:48;9.30;99.90
46730;DHT22;32476;50.002;11.854;2023-04-28T13:07:17;9.30;99.90
46730;DHT22;32476;50.002;11.854;2023-04-28T13:09:43;9.30;99.90
46730;DHT22;32476;50.002;11.854;2023-04-28T13:12:09;9.20;99.90
46730;DHT22;32476;50.002;11.854;2023-04-28T13:14:37;9.20;99.90
46730;DHT22;32476;50.002;11.854;2023-04-28T13:17:04;9.10;99.90
46730;DHT22;32476;50.002;11.854;2023-04-28T13:19:30;9.20;99.90
46730;DHT22;32476;50.002;11.854;2023-04-28T13:21:58;9.20;99.90
46730;DHT22;32476;50.002;11.854;2023-04-28T13:24:24;9.30;99.90
46730;DHT22;32476;50.002;11.854;2023-04-28T13:26:51;9.30;99.90
46730;DHT22;32476;50.002;11.854;2023-04-28T13:29:18;9.30;99.90
46730;DHT22;32476;50.002;11.854;2023-04-28T13:31:45;9.40;99.90
46730;DHT22;32476;50.002;11.854;2023-04-28T13:34:10;9.40;99.90
46730;DHT22;32476;50.002;11.854;2023-04-28T13:36:42;9.40;99.90
46730;DHT22;32476;50.002;11.854;2023-04-28T13:39:08;9.50;99.90
46730;DHT22;32476;50.002;11.854;2023-04-28T13:41:39;9.60;99.90
46730;DHT22;32476;50.002;11.854;2023-04-28T13:44:07;9.60;99.90
46730;DHT22;32476;50.002;11.854;2023-04-28T13:46:33;9.70;99.90
46730;DHT22;32476;50.002;11.854;2023-04-28T13:48:59;9.70;99.90
46730;DHT22;32476;50.002;11.854;2023-04-28T13:51:27;9.70;99.90
46730;DHT22;32476;50.002;11.854;2023-04-28T13:53:53;9.60;99.90
46730;DHT22;32476;50.002;11.854;2023-04-28T13:56:19;9.70;99.90
46730;DHT22;32476;50.002;11.854;2023-04-28T13:58:47;9.80;99.90
46730;DHT22;32476;50.002;11.854;2023-04-28T14:01:13;9.80;99.90
46730;DHT22;32476;50.002;11.854;2023-04-28T14:03:39;9.70;99.90
46730;DHT22;32476;50.002;11.854;2023-04-28T14:06:07;9.60;99.90
46730;DHT22;32476;50.002;11.854;2023-04-28T14:08:33;9.70;99.90
46730;DHT22;32476;50.002;11.854;2023-04-28T14:10:59;9.60;99.90
46730;DHT22;32476;50.002;11.854;2023-04-28T14:13:27;9.70;99.90
46730;DHT22;32476;50.002;11.854;2023-04-28T14:15:57;9.60;99.90
46730;DHT22;32476;50.002;11.854;2023-04-28T14:18:23;9.50;99.90
46730;DHT22;32476;50.002;11.854;2023-04-28T14:20:51;9.60;99.90
46730;DHT22;32476;50.002;11.854;2023-04-28T14:23:18;9.60;99.90
46730;DHT22;32476;50.002;11.854;2023-04-28T14:25:44;9.50;99.90
46730;DHT22;32476;50.002;11.854;2023-04-28T14:28:12;9.70;99.90
46730;DHT22;32476;50.002;11.854;2023-04-28T14:30:38;9.70;99.90
46730;DHT22;32476;50.002;11.854;2023-04-28T14:33:04;9.60;99.90
46730;DHT22;32476;50.002;11.854;2023-04-28T14:35:33;9.60;99.90
46730;DHT22;32476;50.002;11.854;2023-04-28T14:37:59;9.50;99.90
46730;DHT22;32476;50.002;11.854;2023-04-28T14:40:25;9.40;99.90
46730;DHT22;32476;50.002;11.854;2023-04-28T14:42:53;9.40;99.90
46730;DHT22;32476;50.002;11.854;2023-04-28T14:45:19;9.30;99.90
46730;DHT22;32476;50.002;11.854;2023-04-28T14:47:45;9.40;99.90
46730;DHT22;32476;50.002;11.854;2023-04-28T14:50:13;9.30;99.90
46730;DHT22;32476;50.002;11.854;2023-04-28T14:52:39;9.40;99.90
46730;DHT22;32476;50.002;11.854;2023-04-28T14:55:06;9.50;99.90
46730;DHT22;32476;50.002;11.854;2023-04-28T14:57:33;9.50;99.90
46730;DHT22;32476;50.002;11.854;2023-04-28T14:59:59;9.60;99.90
46730;DHT22;32476;50.002;11.854;2023-04-28T15:02:26;9.60;99.90
46730;DHT22;32476;50.002;11.854;2023-04-28T15:04:55;9.60;99.90
46730;DHT22;32476;50.002;11.854;2023-04-28T15:07:21;9.70;99.90
46730;DHT22;32476;50.002;11.854;2023-04-28T15:09:48;9.60;99.90
46730;DHT22;32476;50.002;11.854;2023-04-28T15:12:15;9.60;99.90
46730;DHT22;32476;50.002;11.854;2023-04-28T15:14:41;9.60;99.90
46730;DHT22;32476;50.002;11.854;2023-04-28T15:17:07;9.60;99.90
46730;DHT22;32476;50.002;11.854;2023-04-28T15:19:36;9.50;99.90
46730;DHT22;32476;50.002;11.854;2023-04-28T15:22:02;9.50;99.90
46730;DHT22;32476;50.002;11.854;2023-04-28T15:24:28;9.50;99.90
46730;DHT22;32476;50.002;11.854;2023-04-28T15:26:55;9.50;99.90
46730;DHT22;32476;50.002;11.854;2023-04-28T15:29:21;9.50;99.90
46730;DHT22;32476;50.002;11.854;2023-04-28T15:31:47;9.50;99.90
46730;DHT22;32476;50.002;11.854;2023-04-28T15:34:14;9.50;99.90
46730;DHT22;32476;50.002;11.854;2023-04-28T15:36:41;9.50;99.90
46730;DHT22;32476;50.002;11.854;2023-04-28T15:39:08;9.50;99.90
46730;DHT22;32476;50.002;11.854;2023-04-28T15:41:36;9.60;99.90
46730;DHT22;32476;50.002;11.854;2023-04-28T15:44:02;9.50;99.90